createdAt,value
2022-07-30T00:00:52.573Z,96.90
2022-07-30T00:03:54.455Z,97.20
2022-07-30T00:06:56.243Z,97.30
2022-07-30T00:09:58.301Z,97.50
2022-07-30T00:13:00.168Z,97.50
2022-07-30T00:16:02.003Z,97.50
2022-07-30T00:19:04.058Z,97.60
2022-07-30T00:22:08.993Z,97.70
2022-07-30T00:25:10.765Z,97.70
2022-07-30T00:28:12.499Z,97.70
2022-07-30T00:31:14.723Z,97.70
2022-07-30T00:34:16.664Z,97.80
2022-07-30T00:37:18.539Z,97.70
2022-07-30T00:40:20.376Z,97.80
2022-07-30T00:43:22.096Z,98.00
2022-07-30T00:46:24.429Z,98.00
2022-07-30T00:49:26.911Z,98.20
2022-07-30T00:52:28.856Z,98.30
2022-07-30T00:55:30.934Z,98.80
2022-07-30T00:58:32.701Z,98.60
2022-07-30T01:01:36.019Z,98.80
2022-07-30T01:04:37.735Z,99.00
2022-07-30T01:07:39.706Z,99.10
2022-07-30T01:10:41.633Z,99.30
2022-07-30T01:13:45.003Z,99.30
2022-07-30T01:16:47.322Z,99.60
2022-07-30T01:19:52.515Z,99.70
2022-07-30T01:23:12.270Z,99.70
2022-07-30T01:26:19.635Z,99.90
2022-07-30T01:29:23.358Z,99.90
2022-07-30T01:32:26.621Z,99.90
2022-07-30T01:35:30.660Z,99.90
2022-07-30T01:38:35.152Z,99.90
2022-07-30T01:41:38.563Z,99.90
2022-07-30T01:44:41.846Z,99.90
2022-07-30T01:47:45.146Z,99.90
2022-07-30T01:50:49.969Z,99.90
2022-07-30T01:53:53.424Z,99.90
2022-07-30T01:56:56.309Z,99.90
2022-07-30T02:00:04.934Z,99.90
2022-07-30T02:03:08.942Z,99.90
2022-07-30T02:06:19.557Z,99.90
2022-07-30T02:09:27.456Z,99.90
2022-07-30T02:12:31.504Z,99.90
2022-07-30T02:15:45.787Z,99.90
2022-07-30T02:19:09.658Z,99.90
2022-07-30T02:22:17.936Z,99.90
2022-07-30T02:25:22.397Z,99.90
2022-07-30T02:28:24.638Z,99.90
2022-07-30T02:31:29.979Z,99.90
2022-07-30T02:34:35.920Z,99.90
2022-07-30T02:37:43.886Z,99.90
2022-07-30T02:40:48.039Z,99.90
2022-07-30T02:43:52.392Z,99.90
2022-07-30T02:46:55.942Z,99.90
2022-07-30T02:49:59.670Z,99.90
2022-07-30T02:53:03.579Z,99.90
2022-07-30T02:56:08.202Z,99.90
2022-07-30T02:59:11.755Z,99.90
2022-07-30T03:02:14.632Z,99.90
2022-07-30T03:05:16.870Z,99.90
2022-07-30T03:08:19.895Z,99.90
2022-07-30T03:11:24.515Z,99.90
2022-07-30T03:14:26.273Z,99.90
2022-07-30T03:17:44.383Z,99.90
2022-07-30T03:20:49.997Z,99.90
2022-07-30T03:23:54.939Z,99.90
2022-07-30T03:26:58.000Z,99.90
2022-07-30T03:30:02.542Z,99.90
2022-07-30T03:33:05.968Z,99.90
2022-07-30T03:36:09.873Z,99.90
2022-07-30T03:39:12.610Z,99.90
2022-07-30T03:42:15.089Z,99.90
2022-07-30T03:45:18.729Z,99.90
2022-07-30T03:48:20.699Z,99.90
2022-07-30T03:51:22.790Z,99.90
2022-07-30T03:54:25.722Z,99.90
2022-07-30T03:57:27.621Z,99.90
2022-07-30T04:00:30.129Z,99.90
2022-07-30T04:03:33.259Z,99.90
2022-07-30T04:06:39.814Z,99.90
2022-07-30T04:09:41.601Z,99.90
2022-07-30T04:12:43.648Z,99.90
2022-07-30T04:16:40.301Z,99.90
2022-07-30T04:19:57.633Z,99.90
2022-07-30T04:23:00.354Z,99.90
2022-07-30T04:26:02.566Z,99.90
2022-07-30T04:29:08.399Z,99.90
2022-07-30T04:32:10.345Z,99.90
2022-07-30T04:35:12.201Z,99.90
2022-07-30T04:38:33.917Z,99.90
2022-07-30T04:41:48.813Z,99.90
2022-07-30T04:44:52.057Z,99.90
2022-07-30T04:47:53.968Z,99.90
2022-07-30T04:51:00.451Z,99.90
2022-07-30T04:54:05.433Z,99.90
2022-07-30T04:57:09.203Z,99.90
2022-07-30T05:00:11.806Z,99.90
2022-07-30T05:03:15.358Z,99.90
2022-07-30T05:06:17.658Z,99.90
2022-07-30T05:09:20.075Z,99.90
2022-07-30T05:12:21.879Z,99.90
2022-07-30T05:15:23.775Z,99.90
2022-07-30T05:18:38.983Z,99.90
2022-07-30T05:21:41.310Z,99.90
2022-07-30T05:24:43.088Z,99.90
2022-07-30T05:27:44.802Z,99.90
2022-07-30T05:30:47.726Z,99.90
2022-07-30T05:33:49.833Z,99.90
2022-07-30T05:36:51.642Z,99.90
2022-07-30T05:40:02.956Z,99.90
2022-07-30T05:43:05.310Z,99.90
2022-07-30T05:46:07.411Z,99.90
2022-07-30T05:49:09.488Z,99.90
2022-07-30T05:52:11.288Z,99.90
2022-07-30T05:55:13.253Z,99.90
2022-07-30T05:58:15.038Z,99.90
2022-07-30T06:01:17.086Z,99.90
2022-07-30T06:04:18.885Z,99.90
2022-07-30T06:07:20.776Z,99.90
2022-07-30T06:10:22.748Z,99.90
2022-07-30T06:13:24.895Z,99.90
2022-07-30T06:16:26.613Z,99.90
2022-07-30T06:19:28.460Z,99.90
2022-07-30T06:22:30.410Z,99.90
2022-07-30T06:25:32.229Z,99.90
2022-07-30T06:28:38.798Z,99.90
2022-07-30T06:31:41.638Z,99.90
2022-07-30T06:34:43.402Z,99.90
2022-07-30T06:38:01.802Z,99.90
2022-07-30T06:41:07.223Z,99.90
2022-07-30T06:44:09.189Z,99.90
2022-07-30T06:47:11.697Z,99.90
2022-07-30T06:50:13.814Z,99.90
2022-07-30T06:53:15.857Z,99.90
2022-07-30T06:56:17.648Z,99.90
2022-07-30T06:59:19.714Z,99.90
2022-07-30T07:02:21.614Z,99.90
2022-07-30T07:05:23.806Z,99.90
2022-07-30T07:08:26.557Z,99.90
2022-07-30T07:11:28.499Z,99.90
2022-07-30T07:14:30.429Z,99.90
2022-07-30T07:17:32.140Z,99.90
2022-07-30T07:20:35.089Z,99.90
2022-07-30T07:23:41.338Z,99.90
2022-07-30T07:26:44.452Z,99.90
2022-07-30T07:30:01.837Z,99.90
2022-07-30T07:33:07.202Z,99.90
2022-07-30T07:36:08.939Z,99.90
2022-07-30T07:39:13.160Z,99.90
2022-07-30T07:42:16.759Z,99.90
2022-07-30T07:45:18.526Z,99.90
2022-07-30T07:48:20.319Z,99.90
2022-07-30T07:51:48.320Z,99.90
2022-07-30T07:54:44.056Z,99.90
2022-07-30T07:57:46.233Z,99.90
2022-07-30T08:00:49.666Z,99.90
2022-07-30T08:03:51.577Z,99.90
2022-07-30T08:06:53.314Z,99.90
2022-07-30T08:09:55.076Z,99.90
2022-07-30T08:12:57.093Z,99.90
2022-07-30T08:16:01.424Z,99.90
2022-07-30T08:19:03.236Z,99.90
2022-07-30T08:22:05.369Z,99.90
2022-07-30T08:25:07.965Z,99.90
2022-07-30T08:28:35.215Z,99.90
2022-07-30T08:31:32.192Z,99.90
2022-07-30T08:34:33.982Z,99.90
2022-07-30T08:37:37.636Z,99.90
2022-07-30T08:40:39.463Z,99.90
2022-07-30T08:43:42.187Z,99.90
2022-07-30T08:46:47.290Z,99.90
2022-07-30T08:49:49.553Z,99.90
2022-07-30T08:52:55.670Z,99.90
2022-07-30T08:55:58.819Z,99.90
2022-07-30T08:59:01.599Z,99.90
2022-07-30T09:02:05.620Z,99.90
2022-07-30T09:05:10.735Z,99.90
2022-07-30T09:08:12.709Z,99.90
2022-07-30T09:11:20.809Z,99.90
2022-07-30T09:14:22.604Z,99.90
2022-07-30T09:17:55.582Z,99.90
2022-07-30T09:21:13.407Z,99.90
2022-07-30T09:24:15.351Z,99.90
2022-07-30T09:27:17.047Z,99.90
2022-07-30T09:30:18.793Z,99.90
2022-07-30T09:33:43.008Z,99.90
2022-07-30T09:36:45.193Z,99.90
2022-07-30T09:39:59.356Z,99.90
2022-07-30T09:43:12.010Z,99.00
2022-07-30T09:46:14.379Z,99.40
2022-07-30T09:49:21.494Z,99.40
2022-07-30T09:52:29.720Z,99.40
2022-07-30T09:55:41.423Z,99.50
2022-07-30T09:58:45.378Z,99.50
2022-07-30T10:01:59.194Z,99.00
2022-07-30T10:05:14.472Z,98.30
2022-07-30T10:08:18.959Z,98.30
2022-07-30T10:11:26.684Z,98.10
2022-07-30T10:14:42.558Z,98.10
2022-07-30T10:17:46.704Z,98.30
2022-07-30T10:20:49.732Z,98.30
2022-07-30T10:23:53.723Z,97.80
2022-07-30T10:26:55.784Z,98.00
2022-07-30T10:29:59.614Z,97.60
2022-07-30T10:33:07.986Z,97.40
2022-07-30T10:36:14.301Z,97.30
2022-07-30T10:39:21.504Z,98.00
2022-07-30T10:42:53.449Z,97.70
2022-07-30T10:46:05.186Z,97.60
2022-07-30T10:49:19.157Z,97.50
2022-07-30T10:52:51.239Z,97.40
2022-07-30T10:56:25.626Z,96.90
2022-07-30T10:59:29.095Z,96.90
2022-07-30T11:02:35.373Z,96.70
2022-07-30T11:05:45.569Z,96.10
2022-07-30T11:08:49.482Z,96.00
2022-07-30T11:12:01.250Z,95.80
2022-07-30T11:15:18.721Z,95.80
2022-07-30T11:18:21.647Z,96.00
2022-07-30T11:21:26.845Z,95.90
2022-07-30T11:24:46.820Z,96.00
2022-07-30T11:27:50.669Z,95.70
2022-07-30T11:30:53.788Z,95.30
2022-07-30T11:34:20.443Z,95.40
2022-07-30T11:37:32.156Z,95.00
2022-07-30T11:40:50.955Z,94.90
2022-07-30T11:44:30.059Z,95.30
2022-07-30T11:47:32.198Z,95.00
2022-07-30T11:50:35.368Z,95.30
2022-07-30T11:53:37.667Z,95.60
2022-07-30T11:56:54.911Z,94.90
2022-07-30T11:59:58.166Z,94.90
2022-07-30T12:03:03.858Z,95.00
2022-07-30T12:06:13.826Z,95.10
2022-07-30T12:09:29.914Z,94.60
2022-07-30T12:12:31.614Z,94.20
2022-07-30T12:15:35.432Z,94.50
2022-07-30T12:18:38.100Z,94.00
2022-07-30T12:21:40.099Z,93.70
2022-07-30T12:24:41.870Z,93.70
2022-07-30T12:27:52.259Z,93.90
2022-07-30T12:30:56.275Z,94.00
2022-07-30T12:33:59.100Z,93.80
2022-07-30T12:37:09.851Z,93.60
2022-07-30T12:40:15.102Z,93.30
2022-07-30T12:43:17.621Z,93.30
2022-07-30T12:46:24.177Z,93.30
2022-07-30T12:49:39.487Z,93.70
2022-07-30T12:52:53.626Z,93.30
2022-07-30T12:56:13.680Z,93.20
2022-07-30T12:59:22.689Z,93.50
2022-07-30T13:02:35.079Z,92.90
2022-07-30T13:05:49.864Z,93.10
2022-07-30T13:08:53.091Z,93.80
2022-07-30T13:11:54.819Z,93.30
2022-07-30T13:14:56.756Z,93.30
2022-07-30T13:17:58.652Z,93.20
2022-07-30T13:21:01.314Z,93.30
2022-07-30T13:24:03.818Z,93.10
2022-07-30T13:27:05.816Z,92.90
2022-07-30T13:30:09.205Z,92.70
2022-07-30T13:33:11.146Z,92.40
2022-07-30T13:36:12.906Z,92.50
2022-07-30T13:39:14.639Z,92.80
2022-07-30T13:42:16.799Z,92.50
2022-07-30T13:45:18.499Z,92.30
2022-07-30T13:48:20.293Z,92.00
2022-07-30T13:51:22.007Z,91.90
2022-07-30T13:54:24.321Z,92.00
2022-07-30T13:57:26.106Z,92.50
2022-07-30T14:00:37.346Z,91.90
2022-07-30T14:03:39.093Z,92.00
2022-07-30T14:06:41.499Z,91.60
2022-07-30T14:09:44.944Z,92.10
2022-07-30T14:12:55.090Z,92.70
2022-07-30T14:15:56.795Z,93.00
2022-07-30T14:18:58.665Z,93.00
2022-07-30T14:22:00.574Z,92.80
2022-07-30T14:25:02.676Z,92.60
2022-07-30T14:28:04.996Z,92.50
2022-07-30T14:31:07.409Z,92.60
2022-07-30T14:34:09.280Z,92.30
2022-07-30T14:37:14.619Z,92.40
2022-07-30T14:40:17.881Z,92.30
2022-07-30T14:43:19.696Z,92.20
2022-07-30T14:46:21.714Z,92.20
2022-07-30T14:49:24.016Z,92.30
2022-07-30T14:52:26.345Z,92.20
2022-07-30T14:55:28.114Z,92.20
2022-07-30T14:58:29.869Z,92.10
2022-07-30T15:01:32.259Z,92.10
2022-07-30T15:04:34.205Z,91.90
2022-07-30T15:07:38.221Z,91.90
2022-07-30T15:10:40.535Z,91.80
2022-07-30T15:13:50.515Z,91.70
2022-07-30T15:16:53.153Z,91.70
2022-07-30T15:19:55.021Z,91.60
2022-07-30T15:22:57.043Z,91.30
2022-07-30T15:25:58.791Z,91.70
2022-07-30T15:29:02.505Z,91.60
2022-07-30T15:32:05.262Z,91.60
2022-07-30T15:35:10.598Z,91.40
2022-07-30T15:38:15.578Z,91.30
2022-07-30T15:41:18.458Z,91.20
2022-07-30T15:44:20.441Z,91.50
2022-07-30T15:47:23.033Z,91.20
2022-07-30T15:50:24.832Z,90.90
2022-07-30T15:53:26.796Z,90.50
2022-07-30T15:56:29.919Z,90.60
2022-07-30T15:59:31.923Z,90.50
2022-07-30T16:02:33.801Z,90.00
2022-07-30T16:05:52.297Z,89.80
2022-07-30T16:08:54.537Z,90.10
2022-07-30T16:11:57.475Z,90.20
2022-07-30T16:14:59.968Z,90.40
2022-07-30T16:18:04.253Z,90.60
2022-07-30T16:21:06.054Z,90.30
2022-07-30T16:24:08.745Z,90.10
2022-07-30T16:27:10.507Z,90.20
2022-07-30T16:30:13.650Z,90.50
2022-07-30T16:33:15.483Z,90.40
2022-07-30T16:36:17.217Z,90.50
2022-07-30T16:39:19.002Z,90.40
2022-07-30T16:42:20.877Z,90.30
2022-07-30T16:45:23.258Z,90.40
2022-07-30T16:48:25.482Z,90.50
2022-07-30T16:51:27.508Z,90.60
2022-07-30T16:54:29.352Z,90.90
2022-07-30T16:57:31.087Z,91.00
2022-07-30T17:00:33.067Z,90.90
2022-07-30T17:03:35.107Z,90.80
2022-07-30T17:06:37.203Z,91.00
2022-07-30T17:09:39.069Z,90.90
2022-07-30T17:12:41.156Z,91.10
2022-07-30T17:15:53.106Z,91.00
2022-07-30T17:18:55.074Z,90.70
2022-07-30T17:21:56.877Z,90.50
2022-07-30T17:24:59.067Z,90.60
2022-07-30T17:28:01.512Z,90.60
2022-07-30T17:31:03.904Z,90.60
2022-07-30T17:34:08.920Z,90.60
2022-07-30T17:37:10.923Z,90.80
2022-07-30T17:40:28.370Z,91.10
2022-07-30T17:43:32.694Z,90.70
2022-07-30T17:46:34.728Z,90.70
2022-07-30T17:49:36.978Z,90.90
2022-07-30T17:52:41.015Z,91.30
2022-07-30T17:55:57.678Z,91.30
2022-07-30T17:59:00.214Z,91.40
2022-07-30T18:02:04.276Z,91.10
2022-07-30T18:05:06.929Z,91.20
2022-07-30T18:08:08.669Z,91.20
2022-07-30T18:11:13.673Z,91.20
2022-07-30T18:14:15.909Z,91.30
2022-07-30T18:17:17.753Z,91.50
2022-07-30T18:20:19.563Z,91.50
2022-07-30T18:23:21.556Z,91.60
2022-07-30T18:26:24.482Z,91.70
2022-07-30T18:29:26.350Z,91.60
2022-07-30T18:32:28.725Z,91.60
2022-07-30T18:35:30.694Z,91.50
2022-07-30T18:38:32.415Z,91.50
2022-07-30T18:41:34.405Z,91.60
2022-07-30T18:44:36.174Z,91.90
2022-07-30T18:47:37.915Z,91.90
2022-07-30T18:50:39.863Z,92.20
2022-07-30T18:53:42.385Z,92.70
2022-07-30T18:56:44.235Z,92.90
2022-07-30T18:59:45.991Z,92.80
2022-07-30T19:02:47.811Z,92.60
2022-07-30T19:05:50.231Z,92.70
2022-07-30T19:08:52.010Z,92.70
2022-07-30T19:11:54.139Z,92.90
2022-07-30T19:14:56.064Z,93.10
2022-07-30T19:17:58.433Z,92.90
2022-07-30T19:21:00.146Z,92.70
2022-07-30T19:24:02.128Z,92.60
2022-07-30T19:27:04.871Z,92.90
2022-07-30T19:30:08.434Z,93.40
2022-07-30T19:33:15.169Z,93.70
2022-07-30T19:36:20.776Z,93.60
2022-07-30T19:39:22.640Z,93.60
2022-07-30T19:42:26.186Z,94.00
2022-07-30T19:45:46.897Z,94.10
2022-07-30T19:48:50.583Z,94.10
2022-07-30T19:52:10.978Z,94.20
2022-07-30T19:55:17.246Z,94.50
2022-07-30T19:58:37.245Z,94.80
2022-07-30T20:01:40.496Z,95.10
2022-07-30T20:04:43.919Z,95.30
2022-07-30T20:07:45.769Z,95.40
2022-07-30T20:10:48.468Z,95.30
2022-07-30T20:13:50.244Z,95.20
2022-07-30T20:16:52.002Z,95.30
2022-07-30T20:19:54.444Z,95.40
2022-07-30T20:22:59.919Z,95.80
2022-07-30T20:26:04.463Z,96.00
2022-07-30T20:29:19.233Z,96.20
2022-07-30T20:32:23.486Z,96.30
2022-07-30T20:35:26.563Z,96.10
2022-07-30T20:38:29.579Z,96.10
2022-07-30T20:41:31.580Z,96.20
2022-07-30T20:44:43.048Z,96.20
2022-07-30T20:47:47.062Z,96.40
2022-07-30T20:50:49.813Z,96.40
2022-07-30T20:53:51.590Z,96.50
2022-07-30T20:56:53.746Z,96.50
2022-07-30T20:59:55.680Z,96.50
2022-07-30T21:02:57.706Z,96.60
2022-07-30T21:06:05.132Z,96.70
2022-07-30T21:09:08.853Z,96.60
2022-07-30T21:12:14.405Z,96.80
2022-07-30T21:15:24.251Z,96.80
2022-07-30T21:18:26.447Z,96.80
2022-07-30T21:21:38.455Z,96.90
2022-07-30T21:24:43.466Z,97.20
2022-07-30T21:27:45.348Z,97.50
2022-07-30T21:30:50.093Z,97.60
2022-07-30T21:33:51.934Z,97.80
2022-07-30T21:36:55.568Z,97.50
2022-07-30T21:39:59.193Z,97.60
2022-07-30T21:43:01.407Z,97.70
2022-07-30T21:46:10.441Z,97.60
2022-07-30T21:49:12.524Z,97.70
2022-07-30T21:52:14.440Z,97.80
2022-07-30T21:55:17.641Z,98.20
2022-07-30T21:58:25.946Z,98.50
2022-07-30T22:01:28.379Z,98.80
2022-07-30T22:04:34.978Z,98.80
2022-07-30T22:07:36.891Z,99.20
2022-07-30T22:10:41.259Z,99.10
2022-07-30T22:13:51.309Z,99.00
2022-07-30T22:16:56.524Z,99.30
2022-07-30T22:19:58.410Z,99.20
2022-07-30T22:23:03.133Z,99.60
2022-07-30T22:26:06.611Z,99.40
2022-07-30T22:29:08.413Z,99.70
2022-07-30T22:32:12.479Z,99.70
2022-07-30T22:35:16.351Z,99.80
2022-07-30T22:38:19.642Z,99.80
2022-07-30T22:41:21.652Z,99.70
2022-07-30T22:44:23.513Z,99.80
2022-07-30T22:47:50.986Z,99.70
2022-07-30T22:50:48.483Z,99.90
2022-07-30T22:54:02.617Z,99.40
2022-07-30T22:57:13.563Z,99.30
2022-07-30T23:00:27.798Z,99.20
2022-07-30T23:03:30.397Z,99.00
2022-07-30T23:06:33.240Z,98.80
2022-07-30T23:09:44.831Z,98.70
2022-07-30T23:12:53.866Z,98.40
2022-07-30T23:15:55.728Z,98.10
2022-07-30T23:18:57.471Z,98.10
2022-07-30T23:21:59.425Z,98.00
2022-07-30T23:25:01.373Z,97.90
2022-07-30T23:28:03.312Z,97.90
2022-07-30T23:31:05.828Z,98.00
2022-07-30T23:34:07.596Z,98.00
2022-07-30T23:37:12.996Z,98.10
2022-07-30T23:40:19.552Z,98.20
2022-07-30T23:43:21.441Z,98.20
2022-07-30T23:46:23.468Z,98.40
2022-07-30T23:49:25.493Z,98.30
2022-07-30T23:52:27.257Z,98.30
2022-07-30T23:55:30.964Z,98.30
2022-07-30T23:58:32.710Z,98.30
